createdAt,value
2023-03-20T00:01:33.494Z,94409.22
2023-03-20T00:04:00.190Z,94401.50
2023-03-20T00:06:31.430Z,94393.16
2023-03-20T00:08:58.472Z,94396.13
2023-03-20T00:11:29.414Z,94405.53
2023-03-20T00:13:58.590Z,94406.47
2023-03-20T00:16:30.547Z,94407.44
2023-03-20T00:18:57.852Z,94394.03
2023-03-20T00:21:24.922Z,94405.06
2023-03-20T00:23:51.585Z,94404.28
2023-03-20T00:26:19.764Z,94397.53
2023-03-20T00:28:48.248Z,94387.28
2023-03-20T00:31:20.810Z,94414.38
2023-03-20T00:33:47.675Z,94406.66
2023-03-20T00:36:14.393Z,94403.97
2023-03-20T00:38:41.100Z,94394.81
2023-03-20T00:41:28.774Z,94398.94
2023-03-20T00:43:59.628Z,94397.22
2023-03-20T00:46:27.350Z,94396.13
2023-03-20T00:48:54.774Z,94397.53
2023-03-20T00:51:22.362Z,94395.78
2023-03-20T00:53:49.033Z,94397.19
2023-03-20T00:56:33.204Z,94391.53
2023-03-20T00:59:02.225Z,94389.47
2023-03-20T01:01:31.396Z,94374.84
2023-03-20T01:04:02.052Z,94403.31
2023-03-20T01:06:29.716Z,94391.06
2023-03-20T01:08:57.726Z,94395.44
2023-03-20T01:11:26.107Z,94400.94
2023-03-20T01:13:52.841Z,94395.91
2023-03-20T01:16:25.027Z,94403.13
2023-03-20T01:18:51.974Z,94401.88
2023-03-20T01:21:19.537Z,94397.75
2023-03-20T01:23:46.781Z,94391.91
2023-03-20T01:26:32.968Z,94401.13
2023-03-20T01:29:00.006Z,94394.03
2023-03-20T01:31:27.600Z,94406.72
2023-03-20T01:33:54.296Z,94401.09
2023-03-20T01:36:23.834Z,94402.84
2023-03-20T01:38:56.334Z,94397.97
2023-03-20T01:41:26.509Z,94408.41
2023-03-20T01:43:53.734Z,94408.72
2023-03-20T01:46:31.921Z,94404.16
2023-03-20T01:49:19.342Z,94411.50
2023-03-20T01:51:51.369Z,94402.06
2023-03-20T01:54:24.234Z,94407.19
2023-03-20T01:57:11.378Z,94406.88
2023-03-20T01:59:46.176Z,94402.94
2023-03-20T02:02:19.508Z,94412.53
2023-03-20T02:04:51.090Z,94416.47
2023-03-20T02:07:21.395Z,94407.84
2023-03-20T02:10:16.424Z,94411.94
2023-03-20T02:12:53.048Z,94408.06
2023-03-20T02:15:29.905Z,94398.34
2023-03-20T02:18:09.060Z,94402.28
2023-03-20T02:21:02.102Z,94411.41
2023-03-20T02:24:00.043Z,94412.84
2023-03-20T02:26:34.272Z,94420.25
2023-03-20T02:29:19.848Z,94412.66
2023-03-20T02:31:49.602Z,94416.75
2023-03-20T02:34:47.417Z,94422.44
2023-03-20T02:37:41.941Z,94421.81
2023-03-20T02:40:22.004Z,94428.38
2023-03-20T02:43:03.773Z,94427.91
2023-03-20T02:46:03.072Z,94427.09
2023-03-20T02:48:36.560Z,94425.53
2023-03-20T02:51:16.303Z,94428.34
2023-03-20T02:53:52.529Z,94429.28
2023-03-20T02:56:32.097Z,94431.28
2023-03-20T02:59:26.232Z,94426.91
2023-03-20T03:01:58.099Z,94424.38
2023-03-20T03:04:29.976Z,94414.72
2023-03-20T03:07:02.980Z,94426.69
2023-03-20T03:09:35.673Z,94434.53
2023-03-20T03:12:18.163Z,94426.84
2023-03-20T03:14:55.284Z,94439.88
2023-03-20T03:17:26.304Z,94429.97
2023-03-20T03:19:58.123Z,94423.31
2023-03-20T03:22:25.936Z,94432.00
2023-03-20T03:24:54.518Z,94442.53
2023-03-20T03:27:29.028Z,94435.44
2023-03-20T03:29:58.590Z,94441.88
2023-03-20T03:32:44.847Z,94442.00
2023-03-20T03:35:17.156Z,94448.59
2023-03-20T03:38:22.583Z,94453.63
2023-03-20T03:41:05.329Z,94448.97
2023-03-20T03:43:46.046Z,94442.84
2023-03-20T03:46:23.255Z,94451.78
2023-03-20T03:48:57.142Z,94457.63
2023-03-20T03:51:28.064Z,94443.63
2023-03-20T03:54:31.054Z,94460.78
2023-03-20T03:57:35.067Z,94453.56
2023-03-20T04:00:06.693Z,94448.22
2023-03-20T04:02:40.670Z,94454.03
2023-03-20T04:05:08.594Z,94456.41
2023-03-20T04:07:35.322Z,94447.53
2023-03-20T04:10:02.462Z,94458.41
2023-03-20T04:12:43.735Z,94465.63
2023-03-20T04:15:12.125Z,94464.22
2023-03-20T04:17:39.158Z,94460.78
2023-03-20T04:20:08.232Z,94459.50
2023-03-20T04:22:35.115Z,94468.28
2023-03-20T04:25:17.382Z,94463.09
2023-03-20T04:27:44.036Z,94454.97
2023-03-20T04:30:18.821Z,94467.78
2023-03-20T04:33:21.214Z,94465.69
2023-03-20T04:36:12.643Z,94463.34
2023-03-20T04:38:40.542Z,94479.84
2023-03-20T04:41:08.194Z,94474.97
2023-03-20T04:43:35.291Z,94471.03
2023-03-20T04:46:02.007Z,94476.56
2023-03-20T04:48:28.950Z,94472.00
2023-03-20T04:50:56.229Z,94468.25
2023-03-20T04:53:29.226Z,94481.44
2023-03-20T04:55:55.994Z,94479.28
2023-03-20T04:58:23.736Z,94472.34
2023-03-20T05:00:50.783Z,94466.06
2023-03-20T05:03:17.598Z,94482.44
2023-03-20T05:05:44.434Z,94475.81
2023-03-20T05:08:11.351Z,94481.94
2023-03-20T05:10:39.148Z,94478.78
2023-03-20T05:13:14.971Z,94477.69
2023-03-20T05:16:05.018Z,94478.16
2023-03-20T05:18:31.997Z,94481.41
2023-03-20T05:21:21.416Z,94475.59
2023-03-20T05:24:14.002Z,94481.59
2023-03-20T05:27:01.081Z,94477.84
2023-03-20T05:29:46.509Z,94480.22
2023-03-20T05:32:16.204Z,94475.03
2023-03-20T05:35:07.103Z,94480.06
2023-03-20T05:37:52.072Z,94485.25
2023-03-20T05:40:44.082Z,94490.25
2023-03-20T05:43:21.797Z,94493.25
2023-03-20T05:46:08.750Z,94488.50
2023-03-20T05:48:38.316Z,94503.91
2023-03-20T05:51:17.789Z,94501.56
2023-03-20T05:54:03.068Z,94496.69
2023-03-20T05:56:53.920Z,94505.47
2023-03-20T05:59:27.201Z,94508.63
2023-03-20T06:02:24.454Z,94526.81
2023-03-20T06:04:59.445Z,94516.28
2023-03-20T06:07:34.714Z,94509.88
2023-03-20T06:10:07.555Z,94514.59
2023-03-20T06:12:34.234Z,94521.63
2023-03-20T06:15:00.975Z,94516.78
2023-03-20T06:17:30.516Z,94528.41
2023-03-20T06:20:03.482Z,94525.31
2023-03-20T06:22:31.162Z,94522.34
2023-03-20T06:24:58.096Z,94515.91
2023-03-20T06:27:31.578Z,94527.31
2023-03-20T06:29:58.279Z,94517.97
2023-03-20T06:32:31.187Z,94533.25
2023-03-20T06:35:00.053Z,94542.22
2023-03-20T06:37:27.190Z,94529.19
2023-03-20T06:40:01.172Z,94543.38
2023-03-20T06:42:28.798Z,94539.44
2023-03-20T06:44:56.733Z,94537.06
2023-03-20T06:47:48.444Z,94556.91
2023-03-20T06:50:15.781Z,94552.50
2023-03-20T06:52:43.004Z,94535.59
2023-03-20T06:55:28.512Z,94548.00
2023-03-20T06:57:55.642Z,94545.31
2023-03-20T07:00:22.842Z,94546.63
2023-03-20T07:02:49.670Z,94541.16
2023-03-20T07:05:17.572Z,94545.75
2023-03-20T07:07:44.926Z,94555.69
2023-03-20T07:10:12.532Z,94549.56
2023-03-20T07:12:42.421Z,94555.59
2023-03-20T07:15:09.552Z,94552.84
2023-03-20T07:17:36.323Z,94538.84
2023-03-20T07:20:04.701Z,94537.47
2023-03-20T07:22:34.146Z,94535.94
2023-03-20T07:25:15.448Z,94530.44
2023-03-20T07:27:43.071Z,94535.31
2023-03-20T07:30:11.016Z,94542.28
2023-03-20T07:32:39.798Z,94553.16
2023-03-20T07:35:07.291Z,94554.41
2023-03-20T07:37:34.463Z,94545.25
2023-03-20T07:40:02.722Z,94543.53
2023-03-20T07:42:31.998Z,94549.25
2023-03-20T07:45:06.825Z,94556.00
2023-03-20T07:47:33.827Z,94559.13
2023-03-20T07:50:07.688Z,94556.59
2023-03-20T07:52:34.912Z,94548.22
2023-03-20T07:55:01.736Z,94544.56
2023-03-20T07:57:28.449Z,94550.72
2023-03-20T07:59:56.920Z,94548.91
2023-03-20T08:02:23.564Z,94554.38
2023-03-20T08:04:50.313Z,94557.00
2023-03-20T08:07:17.200Z,94549.19
2023-03-20T08:09:44.014Z,94560.94
2023-03-20T08:12:10.885Z,94561.75
2023-03-20T08:14:38.763Z,94545.28
2023-03-20T08:17:14.263Z,94560.38
2023-03-20T08:19:41.978Z,94560.81
2023-03-20T08:22:08.753Z,94571.75
2023-03-20T08:24:35.513Z,94568.50
2023-03-20T08:27:02.245Z,94560.94
2023-03-20T08:29:28.995Z,94561.31
2023-03-20T08:31:56.180Z,94550.16
2023-03-20T08:34:24.134Z,94559.94
2023-03-20T08:36:52.461Z,94558.34
2023-03-20T08:39:19.150Z,94554.03
2023-03-20T08:41:45.929Z,94555.91
2023-03-20T08:44:13.604Z,94562.91
2023-03-20T08:46:40.314Z,94557.00
2023-03-20T08:49:07.302Z,94564.06
2023-03-20T08:51:34.065Z,94565.06
2023-03-20T08:54:00.867Z,94552.72
2023-03-20T08:56:27.737Z,94560.47
2023-03-20T08:58:56.135Z,94551.84
2023-03-20T09:01:23.486Z,94550.41
2023-03-20T09:03:50.516Z,94561.56
2023-03-20T09:06:17.253Z,94564.56
2023-03-20T09:08:43.959Z,94560.81
2023-03-20T09:11:10.700Z,94559.59
2023-03-20T09:13:37.612Z,94569.16
2023-03-20T09:16:04.859Z,94565.03
2023-03-20T09:18:31.643Z,94561.09
2023-03-20T09:20:58.354Z,94571.91
2023-03-20T09:23:25.205Z,94572.16
2023-03-20T09:25:51.872Z,94566.34
2023-03-20T09:28:18.541Z,94568.44
2023-03-20T09:30:45.834Z,94566.28
2023-03-20T09:33:14.488Z,94574.53
2023-03-20T09:35:43.681Z,94549.63
2023-03-20T09:38:12.334Z,94573.13
2023-03-20T09:40:52.959Z,94588.19
2023-03-20T09:43:44.663Z,94587.16
2023-03-20T09:46:32.641Z,94588.03
2023-03-20T09:49:16.791Z,94578.47
2023-03-20T09:51:59.412Z,94577.09
2023-03-20T09:54:47.062Z,94577.66
2023-03-20T09:57:23.794Z,94577.97
2023-03-20T09:59:55.529Z,94577.97
2023-03-20T10:02:44.097Z,94570.53
2023-03-20T10:05:29.868Z,94573.53
2023-03-20T10:08:02.536Z,94572.59
2023-03-20T10:10:38.686Z,94575.75
2023-03-20T10:13:55.768Z,94571.81
2023-03-20T10:16:37.578Z,94575.38
2023-03-20T10:19:07.239Z,94571.41
2023-03-20T10:21:44.959Z,94573.69
2023-03-20T10:24:49.823Z,94576.28
2023-03-20T10:27:34.045Z,94572.03
2023-03-20T10:30:13.653Z,94572.13
2023-03-20T10:33:08.251Z,94575.03
2023-03-20T10:35:57.726Z,94577.09
2023-03-20T10:38:48.949Z,94577.81
2023-03-20T10:41:32.325Z,94568.81
2023-03-20T10:44:01.174Z,94569.28
2023-03-20T10:46:33.104Z,94559.16
2023-03-20T10:49:18.925Z,94564.44
2023-03-20T10:51:54.945Z,94556.53
2023-03-20T10:54:29.031Z,94563.31
2023-03-20T10:56:59.298Z,94560.03
2023-03-20T10:59:43.986Z,94556.25
2023-03-20T11:02:12.722Z,94556.19
2023-03-20T11:04:39.771Z,94563.75
2023-03-20T11:07:31.602Z,94559.94
2023-03-20T11:10:04.730Z,94567.25
2023-03-20T11:12:36.057Z,94559.63
2023-03-20T11:15:14.788Z,94562.31
2023-03-20T11:17:41.668Z,94548.63
2023-03-20T11:20:11.047Z,94565.50
2023-03-20T11:22:38.400Z,94568.25
2023-03-20T11:25:05.571Z,94565.09
2023-03-20T11:27:34.592Z,94568.50
2023-03-20T11:30:06.195Z,94561.28
2023-03-20T11:32:36.401Z,94564.91
2023-03-20T11:35:19.545Z,94564.81
2023-03-20T11:37:48.518Z,94572.28
2023-03-20T11:40:25.697Z,94569.72
2023-03-20T11:43:14.336Z,94567.34
2023-03-20T11:45:47.847Z,94562.94
2023-03-20T11:48:19.251Z,94571.06
2023-03-20T11:50:52.028Z,94565.69
2023-03-20T11:53:39.656Z,94558.94
2023-03-20T11:56:11.111Z,94559.00
2023-03-20T11:58:58.616Z,94557.25
2023-03-20T12:01:27.326Z,94560.41
2023-03-20T12:04:06.058Z,94557.78
2023-03-20T12:06:46.172Z,94556.09
2023-03-20T12:09:25.073Z,94546.25
2023-03-20T12:12:14.041Z,94546.47
2023-03-20T12:14:48.326Z,94553.03
2023-03-20T12:17:30.033Z,94549.91
2023-03-20T12:20:03.572Z,94543.31
2023-03-20T12:22:43.365Z,94540.56
2023-03-20T12:25:28.531Z,94549.75
2023-03-20T12:28:06.364Z,94535.19
2023-03-20T12:31:05.584Z,94538.47
2023-03-20T12:33:42.976Z,94540.66
2023-03-20T12:36:16.632Z,94534.91
2023-03-20T12:38:44.482Z,94540.09
2023-03-20T12:41:12.540Z,94536.78
2023-03-20T12:44:20.972Z,94536.13
2023-03-20T12:46:57.348Z,94537.50
2023-03-20T12:49:39.253Z,94533.34
2023-03-20T12:52:14.846Z,94530.31
2023-03-20T12:55:10.656Z,94539.31
2023-03-20T12:57:49.353Z,94533.28
2023-03-20T13:00:32.147Z,94526.00
2023-03-20T13:03:17.949Z,94530.84
2023-03-20T13:05:55.386Z,94523.22
2023-03-20T13:08:34.348Z,94522.00
2023-03-20T13:11:16.061Z,94518.59
2023-03-20T13:14:07.303Z,94524.94
2023-03-20T13:16:51.277Z,94518.19
2023-03-20T13:19:45.362Z,94515.94
2023-03-20T13:22:20.676Z,94519.09
2023-03-20T13:24:55.260Z,94518.88
2023-03-20T13:27:41.645Z,94515.84
2023-03-20T13:30:30.406Z,94517.19
2023-03-20T13:33:24.602Z,94509.69
2023-03-20T13:36:16.492Z,94502.16
2023-03-20T13:38:48.462Z,94498.13
2023-03-20T13:41:16.397Z,94495.81
2023-03-20T13:43:54.422Z,94503.41
2023-03-20T13:46:31.782Z,94502.63
2023-03-20T13:49:05.949Z,94494.59
2023-03-20T13:52:16.268Z,94483.47
2023-03-20T13:55:01.225Z,94489.91
2023-03-20T13:57:54.056Z,94499.13
2023-03-20T14:00:39.246Z,94494.19
2023-03-20T14:03:26.372Z,94496.09
2023-03-20T14:05:53.010Z,94482.66
2023-03-20T14:08:30.703Z,94487.13
2023-03-20T14:11:12.324Z,94491.25
2023-03-20T14:13:40.031Z,94486.69
2023-03-20T14:16:14.040Z,94488.91
2023-03-20T14:18:43.637Z,94485.94
2023-03-20T14:21:18.028Z,94473.88
2023-03-20T14:23:50.670Z,94474.56
2023-03-20T14:26:41.820Z,94479.28
2023-03-20T14:29:11.636Z,94484.06
2023-03-20T14:31:42.036Z,94479.47
2023-03-20T14:34:14.839Z,94477.44
2023-03-20T14:36:44.496Z,94477.44
2023-03-20T14:39:42.179Z,94464.94
2023-03-20T14:42:15.026Z,94464.16
2023-03-20T14:45:14.187Z,94458.84
2023-03-20T14:47:43.661Z,94466.16
2023-03-20T14:50:18.803Z,94471.88
2023-03-20T14:52:54.544Z,94476.88
2023-03-20T14:55:21.219Z,94470.75
2023-03-20T14:57:56.589Z,94470.44
2023-03-20T15:00:27.728Z,94462.47
2023-03-20T15:03:05.480Z,94468.63
2023-03-20T15:05:35.158Z,94467.16
2023-03-20T15:08:11.055Z,94464.63
2023-03-20T15:10:47.259Z,94458.31
2023-03-20T15:13:15.969Z,94460.78
2023-03-20T15:15:56.461Z,94449.13
2023-03-20T15:18:25.793Z,94461.56
2023-03-20T15:20:53.162Z,94451.72
2023-03-20T15:23:20.270Z,94452.63
2023-03-20T15:25:49.244Z,94457.22
2023-03-20T15:28:22.428Z,94455.50
2023-03-20T15:30:51.771Z,94451.91
2023-03-20T15:33:26.491Z,94452.50
2023-03-20T15:35:53.473Z,94446.66
2023-03-20T15:38:20.925Z,94436.25
2023-03-20T15:40:51.358Z,94446.22
2023-03-20T15:43:22.535Z,94449.22
2023-03-20T15:45:50.789Z,94438.44
2023-03-20T15:48:20.490Z,94449.28
2023-03-20T15:50:54.558Z,94446.06
2023-03-20T15:53:29.401Z,94445.34
2023-03-20T15:56:17.244Z,94443.78
2023-03-20T15:58:46.821Z,94449.16
2023-03-20T16:01:19.546Z,94448.84
2023-03-20T16:03:47.268Z,94442.09
2023-03-20T16:06:17.942Z,94436.06
2023-03-20T16:08:46.897Z,94434.81
2023-03-20T16:11:16.989Z,94443.31
2023-03-20T16:13:49.830Z,94449.22
2023-03-20T16:16:20.078Z,94435.22
2023-03-20T16:18:50.572Z,94445.50
2023-03-20T16:21:32.394Z,94439.00
2023-03-20T16:24:01.377Z,94431.97
2023-03-20T16:26:28.521Z,94438.78
2023-03-20T16:28:58.568Z,94432.69
2023-03-20T16:31:36.589Z,94440.09
2023-03-20T16:34:09.697Z,94437.28
2023-03-20T16:36:38.448Z,94439.38
2023-03-20T16:39:09.788Z,94443.88
2023-03-20T16:41:39.195Z,94436.78
2023-03-20T16:44:18.436Z,94437.78
2023-03-20T16:46:58.234Z,94429.69
2023-03-20T16:49:34.515Z,94444.00
2023-03-20T16:52:15.090Z,94441.41
2023-03-20T16:54:41.957Z,94445.72
2023-03-20T16:57:15.138Z,94445.31
2023-03-20T16:59:42.098Z,94447.41
2023-03-20T17:02:22.486Z,94443.16
2023-03-20T17:04:49.907Z,94448.06
2023-03-20T17:07:19.281Z,94442.75
2023-03-20T17:10:11.867Z,94448.00
2023-03-20T17:12:40.883Z,94445.97
2023-03-20T17:15:08.163Z,94452.28
2023-03-20T17:17:34.825Z,94429.47
2023-03-20T17:20:01.707Z,94451.06
2023-03-20T17:22:30.382Z,94458.69
2023-03-20T17:24:57.101Z,94457.94
2023-03-20T17:27:23.889Z,94455.25
2023-03-20T17:29:50.562Z,94448.53
2023-03-20T17:32:20.106Z,94451.06
2023-03-20T17:34:47.221Z,94454.22
2023-03-20T17:37:17.464Z,94456.59
2023-03-20T17:39:44.170Z,94444.00
2023-03-20T17:42:18.881Z,94446.25
2023-03-20T17:44:46.772Z,94447.47
2023-03-20T17:47:18.890Z,94455.41
2023-03-20T17:49:45.825Z,94455.09
2023-03-20T17:52:17.834Z,94455.25
2023-03-20T17:54:45.871Z,94450.84
2023-03-20T17:57:28.113Z,94460.16
2023-03-20T17:59:54.802Z,94455.63
2023-03-20T18:02:21.544Z,94464.44
2023-03-20T18:04:48.564Z,94463.19
2023-03-20T18:07:17.121Z,94457.53
2023-03-20T18:09:44.746Z,94461.47
2023-03-20T18:12:15.536Z,94467.16
2023-03-20T18:14:42.957Z,94471.56
2023-03-20T18:17:12.914Z,94465.56
2023-03-20T18:19:39.835Z,94466.41
2023-03-20T18:22:07.152Z,94470.81
2023-03-20T18:24:33.976Z,94470.34
2023-03-20T18:27:00.960Z,94487.19
2023-03-20T18:29:27.953Z,94480.44
2023-03-20T18:31:54.836Z,94482.50
2023-03-20T18:34:21.464Z,94485.94
2023-03-20T18:36:48.156Z,94484.53
2023-03-20T18:39:18.766Z,94482.34
2023-03-20T18:41:46.249Z,94496.19
2023-03-20T18:44:13.165Z,94492.72
2023-03-20T18:46:40.418Z,94475.09
2023-03-20T18:49:07.290Z,94491.75
2023-03-20T18:51:34.068Z,94479.19
2023-03-20T18:54:00.713Z,94487.53
2023-03-20T18:56:28.382Z,94486.75
2023-03-20T18:58:55.122Z,94483.44
2023-03-20T19:01:21.855Z,94488.31
2023-03-20T19:03:49.165Z,94482.81
2023-03-20T19:06:18.840Z,94489.41
2023-03-20T19:08:47.027Z,94487.53
2023-03-20T19:11:20.564Z,94479.81
2023-03-20T19:13:51.135Z,94475.72
2023-03-20T19:16:27.017Z,94484.84
2023-03-20T19:18:55.888Z,94472.09
2023-03-20T19:21:26.460Z,94472.09
2023-03-20T19:23:59.345Z,94472.84
2023-03-20T19:26:28.594Z,94475.84
2023-03-20T19:28:57.844Z,94481.84
2023-03-20T19:31:25.812Z,94482.97
2023-03-20T19:33:53.181Z,94476.47
2023-03-20T19:36:25.745Z,94481.72
2023-03-20T19:38:52.949Z,94483.28
2023-03-20T19:41:20.256Z,94486.09
2023-03-20T19:43:52.861Z,94481.69
2023-03-20T19:46:38.046Z,94484.25
2023-03-20T19:49:06.630Z,94490.69
2023-03-20T19:51:33.828Z,94479.50
2023-03-20T19:54:00.705Z,94480.59
2023-03-20T19:56:27.529Z,94481.56
2023-03-20T19:58:54.850Z,94477.47
2023-03-20T20:01:25.175Z,94484.06
2023-03-20T20:03:53.673Z,94487.53
2023-03-20T20:06:22.470Z,94488.63
2023-03-20T20:08:51.249Z,94480.44
2023-03-20T20:11:19.720Z,94484.22
2023-03-20T20:14:04.766Z,94484.06
2023-03-20T20:16:32.952Z,94481.53
2023-03-20T20:18:59.678Z,94480.75
2023-03-20T20:24:12.989Z,94474.91
2023-03-20T20:26:49.293Z,94478.72
2023-03-20T20:29:20.743Z,94481.22
2023-03-20T20:31:47.445Z,94476.84
2023-03-20T20:35:14.907Z,94482.63
2023-03-20T20:39:47.623Z,94466.28
2023-03-20T20:42:14.675Z,94466.13
2023-03-20T20:44:41.433Z,94476.19
2023-03-20T20:47:08.700Z,94468.03
2023-03-20T20:49:36.168Z,94473.03
2023-03-20T20:52:02.999Z,94473.03
2023-03-20T20:54:29.711Z,94467.53
2023-03-20T20:56:56.629Z,94477.47
2023-03-20T20:59:23.509Z,94476.84
2023-03-20T21:01:50.786Z,94475.41
2023-03-20T21:04:17.827Z,94476.50
2023-03-20T21:07:07.415Z,94460.91
2023-03-20T21:09:31.580Z,94469.25
2023-03-20T21:11:58.336Z,94478.53
2023-03-20T21:14:25.341Z,94483.88
2023-03-20T21:16:51.983Z,94479.31
2023-03-20T21:19:19.283Z,94470.03
2023-03-20T21:21:46.146Z,94469.88
2023-03-20T21:24:30.960Z,94476.31
2023-03-20T21:26:59.827Z,94483.09
2023-03-20T21:29:26.872Z,94478.38
2023-03-20T21:31:53.666Z,94481.38
2023-03-20T21:34:20.728Z,94488.28
2023-03-20T21:36:49.172Z,94487.97
2023-03-20T21:39:17.924Z,94486.22
2023-03-20T21:41:45.017Z,94480.09
2023-03-20T21:44:17.161Z,94484.03
2023-03-20T21:47:33.108Z,94491.59
2023-03-20T22:01:29.793Z,94483.25
2023-03-20T22:04:06.261Z,94484.66
2023-03-20T22:17:59.397Z,94475.78
2023-03-20T22:32:33.403Z,94474.84
2023-03-20T22:35:22.417Z,94478.03
2023-03-20T22:40:43.093Z,94480.09
2023-03-20T22:45:31.543Z,94459.44
2023-03-20T22:48:05.696Z,94473.13
2023-03-20T22:50:32.471Z,94474.69
2023-03-20T22:52:59.197Z,94470.44
2023-03-20T22:55:26.191Z,94458.66
2023-03-20T22:58:06.385Z,94467.28
2023-03-20T23:00:35.020Z,94461.47
2023-03-20T23:03:15.293Z,94444.16
2023-03-20T23:05:44.030Z,94461.00
2023-03-20T23:08:12.025Z,94465.88
2023-03-20T23:10:43.901Z,94454.22
2023-03-20T23:13:11.421Z,94445.72
2023-03-20T23:15:38.747Z,94450.78
2023-03-20T23:18:06.527Z,94447.44
2023-03-20T23:20:33.704Z,94445.56
2023-03-20T23:23:00.407Z,94434.88
2023-03-20T23:25:38.616Z,94437.22
2023-03-20T23:28:09.869Z,94434.53
2023-03-20T23:30:46.541Z,94432.66
2023-03-20T23:33:18.517Z,94433.91
2023-03-20T23:35:45.288Z,94443.66
2023-03-20T23:38:11.975Z,94435.19
2023-03-20T23:40:38.932Z,94444.13
2023-03-20T23:43:05.775Z,94438.47
2023-03-20T23:45:32.758Z,94436.13
2023-03-20T23:47:59.544Z,94433.75
2023-03-20T23:50:34.260Z,94428.41
2023-03-20T23:53:19.448Z,94438.16
2023-03-20T23:55:49.147Z,94425.72
2023-03-20T23:58:16.348Z,94426.53
